Aeroporto :
LOGIN :

Iscrizione | Disclaimer

   EN    FR    IT 

 










Sommario :    VFR   VFR Marginale   IFR   IFR Intensivo   IFR Molto Intensivo
Visibilità : 
Base nubi : 
>= 8 km
>= 3000ft
5 / 8 km
1000 / 3000 ft
1500m / 5 km
500 / 1000 ft
800 / 1500m
200 / 500 ft
< 800m
< 200 ft
Simboli :   Temporali  Nebbia  Neve Forte  Precipitazioni Forti  Vento > 20 kt
SIGMETs :   Varie  Temporali  Ghiacco  Turbolenza  Onda orograficha  Ceneri Vulcaniche






- Altitudine del aeroporto : 1455 ft


ETIH - Hohenfels Army Air Field

ULTIMO METAR :
  • 181355Z AUTO 23004KT 9999 CLR 06/03 A2997 RMK AO2 RAE17DZB17E20 SLP161 P0001 T00640025 $

METARs OBSOLETI :
  • 181320Z AUTO 27004KT 9999 FEW015 SCT021 BKN070 05/02 A2998 RMK AO2 RAE17DZB17E20 SLP165 $
  • 181255Z AUTO 03006KT 9999 -RA SCT019 BKN025 BKN060 BKN160 07/02 A2997 RMK AO2 DZE1157RAB1157E08DZB08E11DZB50E53RAB53 CIG 025V160 BKN025 V SCT SLP160 P0000 T00700021 $
  • 181211Z AUTO 05006KT 9999 FEW017 SCT023 SCT028 BKN038 BKN170 BKN200 06/02 A2996 RMK AO2 DZE1157RAB1157E08DZB08E11 SLP157 $
  • 181210Z AUTO 06006KT 9999 -DZ FEW017 SCT023 BKN038 BKN170 06/02 A2996 RMK AO2 DZE1157RAB1157E08DZB08 SLP157 $
  • 181133Z AUTO 35004KT 9999 -DZ FEW030 SCT080 SCT180 SCT200 06/00 A2995 RMK AO2 DZE02DZB33 SLP153 $
  • 181107Z AUTO 30004KT 9999 SCT027 BKN060 07/01 A2994 RMK AO2 DZE02 SLP150 $
  • 181102Z AUTO 30005KT 9999 BKN026 BKN036 BKN060 07/00 A2994 RMK AO2 DZE02 CIG 026V036 BKN026 V SCT SLP150 $
  • 181000Z AUTO 33003KT 9999 SCT020 OVC034 06/02 A2994 RMK AO2 SLP150 $
  • 180938Z AUTO 33004KT 9999 BKN018 OVC023 05/02 A2994 RMK AO2 DZB24E29RAB29E38 BKN V OVC SLP151 $
  • 180924Z AUTO 34003KT 9999 -DZ BKN017 OVC023 05/02 A2994 RMK AO2 DZB24 SLP150 $

Previsioni scadute.



MetMap, La meteo Aeronautica in un colpo d'occhio ! - Copyright ORBIFLY Dicembre 2007 - Disclaimer

ORBIFLY MET'MAP TEAM :

Programmazione e sviluppo : Alexandra Zaïnal
Concezione : Baudouin d'Aumeries
Supporto tecnico e logistico : Manuel Goepfert
Aiuto : Marc-Olivier Méhu
Aiuto per la traduzione : Arnaldo La Scala




FONTI E CREDITI :

   NOAA